Navigator Of The Seas — C6FU4 — position and weather

sailwx.info

Track history (hours):
 
Tides and Currents Weather Stations Pressure Air Temp Water Temp Dewpoint Dewpoint Depression Visibility Wind Speed Wind Dir Waves Ship Positions

Navigator Of The Seas

Operator: Royal Caribbean Cruises Ltd

Last reported at 2017-Apr-29 01:15 UTC. Time now 2017-Apr-29 13:33 UTC.
Position N 26°15' W 079°15'.

Type: Passenger vessel. MMSI: 311478000.

Date/timePositionNaut miles runAvg speedWind from/ knotsBaromVisibWave heightAir tempDewpointWater temp
2017-Apr-29 01:15N 26°15' W 079°15'414.4
2017-Apr-29 01:00N 26°14' W 079°18'714.2
2017-Apr-29 00:30N 26°12' W 079°26'1517.2
2017-Apr-28 23:37N 26°04' W 079°41'420.9
2017-Apr-28 23:26N 26°02' W 079°44'921.3
2017-Apr-28 23:00N 25°56' W 079°52'1019.9
2017-Apr-28 22:31N 25°50' W 080°01'510.9
2017-Apr-28 22:01N 25°46' W 080°05'4 8.8
2017-Apr-28 21:30N 25°47' W 080°10'1 1.7
2017-Apr-28 20:58N 25°47' W 080°11'0 0.0
2017-Apr-28 20:28N 25°47' W 080°11'0 0.0
2017-Apr-28 19:58N 25°47' W 080°11'0 0.0
2017-Apr-28 19:25N 25°47' W 080°11'0 0.0
2017-Apr-28 18:55N 25°47' W 080°11'0 0.0
2017-Apr-28 18:25N 25°47' W 080°11'0 0.0
2017-Apr-28 17:58N 25°47' W 080°11'0 0.0
2017-Apr-28 17:25N 25°47' W 080°11'0 0.0
2017-Apr-28 16:58N 25°47' W 080°11'0 0.0
2017-Apr-28 16:28N 25°47' W 080°11'0 0.0
2017-Apr-28 15:55N 25°47' W 080°11'0 0.0
2017-Apr-28 15:25N 25°47' W 080°11'0 0.0
2017-Apr-28 14:58N 25°47' W 080°11'0 0.0
2017-Apr-28 13:58N 25°47' W 080°11'0 0.0
2017-Apr-28 13:28N 25°47' W 080°11'0 0.0
2017-Apr-28 12:58N 25°47' W 080°11'0 0.0
2017-Apr-28 12:28N 25°47' W 080°11'0 0.0
2017-Apr-28 11:58N 25°47' W 080°11'0 0.0
2017-Apr-28 11:28N 25°47' W 080°11'0 0.0
2017-Apr-28 10:58N 25°47' W 080°11'0 0.0
2017-Apr-28 10:28N 25°47' W 080°11'0 0.0
2017-Apr-28 10:00N 25°47' W 080°11'0 0.6
2017-Apr-28 09:30N 25°47' W 080°11'2 4.3
2017-Apr-28 09:00N 25°46' W 080°09'5 9.9
2017-Apr-28 08:30N 25°46' W 080°03'4 7.7
2017-Apr-28 08:00N 25°44' W 080°00'713.3
2017-Apr-28 07:31N 25°37' W 080°00'713.9
2017-Apr-28 07:00N 25°30' W 080°00'815.3
2017-Apr-28 06:30N 25°22' W 080°00'815.5
2017-Apr-28 06:00N 25°15' W 080°04'815.2
2017-Apr-28 05:30N 25°08' W 080°07'714.5
2017-Apr-28 05:00N 25°02' W 080°12'714.1
2017-Apr-28 04:30N 24°57' W 080°17'713.7
2017-Apr-28 04:01N 24°52' W 080°22'713.3
2017-Apr-28 03:30N 24°48' W 080°28'813.3
2017-Apr-28 02:53N 24°43' W 080°35'513.5
2017-Apr-28 02:29N 24°40' W 080°40'613.7
2017-Apr-28 02:00N 24°36' W 080°46'22114.7
2017-Apr-27 11:00N 22°42' W 084°12'19215.9 140 / 121012.010.8 24.021.126.0
2017-Apr-26 22:54N 20°41' W 086°53'820.1
2017-Apr-26 22:31N 20°34' W 086°58'510.4
2017-Apr-26 22:01N 20°29' W 086°59'1 1.0
2017-Apr-26 21:27N 20°29' W 086°59'0 0.0
2017-Apr-26 21:00N 20°29' W 086°59'0 0.0
2017-Apr-26 20:30N 20°29' W 086°59'0 0.0
2017-Apr-26 19:54N 20°29' W 086°59'0 0.0
2017-Apr-26 19:15N 20°29' W 086°59'0 0.0
2017-Apr-26 19:00N 20°29' W 086°59'0 0.0
2017-Apr-26 17:42N 20°29' W 086°59'0 0.0
2017-Apr-26 17:24N 20°29' W 086°59'0 0.0
2017-Apr-26 16:57N 20°29' W 086°59'0 0.0
2017-Apr-26 16:30N 20°29' W 086°59'0 0.0
2017-Apr-26 16:00N 20°29' W 086°59'0 0.0
2017-Apr-26 15:18N 20°29' W 086°59'0 0.0
2017-Apr-26 15:00N 20°29' W 086°59'0 0.0
2017-Apr-26 14:09N 20°29' W 086°59'0 0.0
2017-Apr-26 13:30N 20°29' W 086°59'0 0.0
2017-Apr-26 12:57N 20°29' W 086°59'0 0.0
2017-Apr-26 12:30N 20°29' W 086°59'0 0.9
2017-Apr-26 12:00N 20°29' W 086°59'3 5.8
2017-Apr-26 11:30N 20°32' W 086°58'3 5.0
2017-Apr-26 11:01N 20°34' W 086°57'816.8
2017-Apr-26 10:30N 20°42' W 086°53'49218.5
2017-Apr-25 07:50N 25°23' W 079°34'620.1
2017-Apr-25 07:30N 25°29' W 079°32'1020.0
2017-Apr-25 07:00N 25°39' W 079°28'1019.5
2017-Apr-25 06:30N 25°48' W 079°24'23 0.8
2017-Apr-24 01:52N 25°55' W 079°48'820.1
2017-Apr-24 01:27N 25°51' W 079°55'817.6
2017-Apr-24 01:00N 25°47' W 080°03'5 9.8
2017-Apr-24 00:28N 25°46' W 080°09'2 3.1
2017-Apr-23 23:56N 25°47' W 080°11'0 0.0
2017-Apr-23 23:29N 25°47' W 080°11'0 0.0
2017-Apr-23 22:59N 25°47' W 080°11'0 0.0
2017-Apr-23 22:26N 25°47' W 080°11'0 0.0
2017-Apr-23 21:59N 25°47' W 080°11'0 0.0
2017-Apr-23 21:29N 25°47' W 080°11'0 0.0
2017-Apr-23 20:59N 25°47' W 080°11'0 0.0
2017-Apr-23 20:29N 25°47' W 080°11'0 0.0
2017-Apr-23 19:59N 25°47' W 080°11'0 0.0
2017-Apr-23 19:26N 25°47' W 080°11'0 0.0
2017-Apr-23 18:56N 25°47' W 080°11'0 0.0
2017-Apr-23 18:26N 25°47' W 080°11'0 0.0
2017-Apr-23 17:53N 25°47' W 080°11'0 0.0
2017-Apr-23 17:29N 25°47' W 080°11'0 0.0
2017-Apr-23 16:59N 25°47' W 080°11'0 0.0
2017-Apr-23 16:20N 25°47' W 080°11'0 0.0
2017-Apr-23 15:59N 25°47' W 080°11'0 0.0
2017-Apr-23 15:29N 25°47' W 080°11'0 0.0
2017-Apr-23 14:59N 25°47' W 080°11'0 0.0
2017-Apr-23 13:53N 25°47' W 080°11'0 0.0
2017-Apr-23 13:26N 25°47' W 080°11'0 0.0
2017-Apr-23 12:59N 25°47' W 080°11'0 0.0
2017-Apr-23 12:29N 25°47' W 080°11'0 0.0
2017-Apr-23 11:59N 25°47' W 080°11'0 0.0
2017-Apr-23 11:29N 25°47' W 080°11'0 0.0
2017-Apr-23 11:01N 25°47' W 080°11'0 0.8
2017-Apr-23 10:31N 25°47' W 080°10'2 4.5
2017-Apr-23 10:00N 25°46' W 080°08'5 9.8
2017-Apr-23 09:31N 25°46' W 080°03'510.8
2017-Apr-23 09:01N 25°42' W 079°59'713.0
2017-Apr-23 08:30N 25°36' W 079°56'714.1
2017-Apr-23 08:00N 25°29' W 079°53'713.9
2017-Apr-23 07:28N 25°22' W 079°51'613.2
2017-Apr-23 07:00N 25°16' W 079°49'  
Track history (hours):
 
Tides and Currents Weather Stations Pressure Air Temp Water Temp Dewpoint Dewpoint Depression Visibility Wind Speed Wind Dir Waves Ship Positions

Navigator Of The Seas

Operator: Royal Caribbean Cruises Ltd

Last reported at 2017-Apr-29 01:15 UTC. Time now 2017-Apr-29 13:33 UTC.
Position N 26°15' W 079°15'.

Type: Passenger vessel. MMSI: 311478000.

Date/timePositionNaut miles runAvg speedWind from/ knotsBaromVisibWave heightAir tempDewpointWater temp
2017-Apr-29 01:15N 26°15' W 079°15'414.4
2017-Apr-29 01:00N 26°14' W 079°18'714.2
2017-Apr-29 00:30N 26°12' W 079°26'1517.2
2017-Apr-28 23:37N 26°04' W 079°41'420.9
2017-Apr-28 23:26N 26°02' W 079°44'921.3
2017-Apr-28 23:00N 25°56' W 079°52'1019.9
2017-Apr-28 22:31N 25°50' W 080°01'510.9
2017-Apr-28 22:01N 25°46' W 080°05'4 8.8
2017-Apr-28 21:30N 25°47' W 080°10'1 1.7
2017-Apr-28 20:58N 25°47' W 080°11'0 0.0
2017-Apr-28 20:28N 25°47' W 080°11'0 0.0
2017-Apr-28 19:58N 25°47' W 080°11'0 0.0
2017-Apr-28 19:25N 25°47' W 080°11'0 0.0
2017-Apr-28 18:55N 25°47' W 080°11'0 0.0
2017-Apr-28 18:25N 25°47' W 080°11'0 0.0
2017-Apr-28 17:58N 25°47' W 080°11'0 0.0
2017-Apr-28 17:25N 25°47' W 080°11'0 0.0
2017-Apr-28 16:58N 25°47' W 080°11'0 0.0
2017-Apr-28 16:28N 25°47' W 080°11'0 0.0
2017-Apr-28 15:55N 25°47' W 080°11'0 0.0
2017-Apr-28 15:25N 25°47' W 080°11'0 0.0
2017-Apr-28 14:58N 25°47' W 080°11'0 0.0
2017-Apr-28 13:58N 25°47' W 080°11'0 0.0
2017-Apr-28 13:28N 25°47' W 080°11'0 0.0
2017-Apr-28 12:58N 25°47' W 080°11'0 0.0
2017-Apr-28 12:28N 25°47' W 080°11'0 0.0
2017-Apr-28 11:58N 25°47' W 080°11'0 0.0
2017-Apr-28 11:28N 25°47' W 080°11'0 0.0
2017-Apr-28 10:58N 25°47' W 080°11'0 0.0
2017-Apr-28 10:28N 25°47' W 080°11'0 0.0
2017-Apr-28 10:00N 25°47' W 080°11'0 0.6
2017-Apr-28 09:30N 25°47' W 080°11'2 4.3
2017-Apr-28 09:00N 25°46' W 080°09'5 9.9
2017-Apr-28 08:30N 25°46' W 080°03'4 7.7
2017-Apr-28 08:00N 25°44' W 080°00'713.3
2017-Apr-28 07:31N 25°37' W 080°00'713.9
2017-Apr-28 07:00N 25°30' W 080°00'815.3
2017-Apr-28 06:30N 25°22' W 080°00'815.5
2017-Apr-28 06:00N 25°15' W 080°04'815.2
2017-Apr-28 05:30N 25°08' W 080°07'714.5
2017-Apr-28 05:00N 25°02' W 080°12'714.1
2017-Apr-28 04:30N 24°57' W 080°17'713.7
2017-Apr-28 04:01N 24°52' W 080°22'713.3
2017-Apr-28 03:30N 24°48' W 080°28'813.3
2017-Apr-28 02:53N 24°43' W 080°35'513.5
2017-Apr-28 02:29N 24°40' W 080°40'613.7
2017-Apr-28 02:00N 24°36' W 080°46'22114.7
2017-Apr-27 11:00N 22°42' W 084°12'19215.9 140 / 121012.010.8 24.021.126.0
2017-Apr-26 22:54N 20°41' W 086°53'820.1
2017-Apr-26 22:31N 20°34' W 086°58'510.4
2017-Apr-26 22:01N 20°29' W 086°59'1 1.0
2017-Apr-26 21:27N 20°29' W 086°59'0 0.0
2017-Apr-26 21:00N 20°29' W 086°59'0 0.0
2017-Apr-26 20:30N 20°29' W 086°59'0 0.0
2017-Apr-26 19:54N 20°29' W 086°59'0 0.0
2017-Apr-26 19:15N 20°29' W 086°59'0 0.0
2017-Apr-26 19:00N 20°29' W 086°59'0 0.0
2017-Apr-26 17:42N 20°29' W 086°59'0 0.0
2017-Apr-26 17:24N 20°29' W 086°59'0 0.0
2017-Apr-26 16:57N 20°29' W 086°59'0 0.0
2017-Apr-26 16:30N 20°29' W 086°59'0 0.0
2017-Apr-26 16:00N 20°29' W 086°59'0 0.0
2017-Apr-26 15:18N 20°29' W 086°59'0 0.0
2017-Apr-26 15:00N 20°29' W 086°59'0 0.0
2017-Apr-26 14:09N 20°29' W 086°59'0 0.0
2017-Apr-26 13:30N 20°29' W 086°59'0 0.0
2017-Apr-26 12:57N 20°29' W 086°59'0 0.0
2017-Apr-26 12:30N 20°29' W 086°59'0 0.9
2017-Apr-26 12:00N 20°29' W 086°59'3 5.8
2017-Apr-26 11:30N 20°32' W 086°58'3 5.0
2017-Apr-26 11:01N 20°34' W 086°57'816.8
2017-Apr-26 10:30N 20°42' W 086°53'49218.5
2017-Apr-25 07:50N 25°23' W 079°34'620.1
2017-Apr-25 07:30N 25°29' W 079°32'1020.0
2017-Apr-25 07:00N 25°39' W 079°28'1019.5
2017-Apr-25 06:30N 25°48' W 079°24'23 0.8
2017-Apr-24 01:52N 25°55' W 079°48'820.1
2017-Apr-24 01:27N 25°51' W 079°55'817.6
2017-Apr-24 01:00N 25°47' W 080°03'5 9.8
2017-Apr-24 00:28N 25°46' W 080°09'2 3.1
2017-Apr-23 23:56N 25°47' W 080°11'0 0.0
2017-Apr-23 23:29N 25°47' W 080°11'0 0.0
2017-Apr-23 22:59N 25°47' W 080°11'0 0.0
2017-Apr-23 22:26N 25°47' W 080°11'0 0.0
2017-Apr-23 21:59N 25°47' W 080°11'0 0.0
2017-Apr-23 21:29N 25°47' W 080°11'0 0.0
2017-Apr-23 20:59N 25°47' W 080°11'0 0.0
2017-Apr-23 20:29N 25°47' W 080°11'0 0.0
2017-Apr-23 19:59N 25°47' W 080°11'0 0.0
2017-Apr-23 19:26N 25°47' W 080°11'0 0.0
2017-Apr-23 18:56N 25°47' W 080°11'0 0.0
2017-Apr-23 18:26N 25°47' W 080°11'0 0.0
2017-Apr-23 17:53N 25°47' W 080°11'0 0.0
2017-Apr-23 17:29N 25°47' W 080°11'0 0.0
2017-Apr-23 16:59N 25°47' W 080°11'0 0.0
2017-Apr-23 16:20N 25°47' W 080°11'0 0.0
2017-Apr-23 15:59N 25°47' W 080°11'0 0.0
2017-Apr-23 15:29N 25°47' W 080°11'0 0.0
2017-Apr-23 14:59N 25°47' W 080°11'0 0.0
2017-Apr-23 13:53N 25°47' W 080°11'0 0.0
2017-Apr-23 13:26N 25°47' W 080°11'0 0.0
2017-Apr-23 12:59N 25°47' W 080°11'0 0.0
2017-Apr-23 12:29N 25°47' W 080°11'0 0.0
2017-Apr-23 11:59N 25°47' W 080°11'0 0.0
2017-Apr-23 11:29N 25°47' W 080°11'0 0.0
2017-Apr-23 11:01N 25°47' W 080°11'0 0.8
2017-Apr-23 10:31N 25°47' W 080°10'2 4.5
2017-Apr-23 10:00N 25°46' W 080°08'5 9.8
2017-Apr-23 09:31N 25°46' W 080°03'510.8
2017-Apr-23 09:01N 25°42' W 079°59'713.0
2017-Apr-23 08:30N 25°36' W 079°56'714.1
2017-Apr-23 08:00N 25°29' W 079°53'713.9
2017-Apr-23 07:28N 25°22' W 079°51'613.2
2017-Apr-23 07:00N 25°16' W 079°49'  

Dump ship's entire track history